sensor_id;sensor_type;location;lat;lon;timestamp;P1;durP1;ratioP1;P2;durP2;ratioP2
60979;SDS011;46851;49.160;8.980;2023-06-26T00:01:18;8.48;;;4.93;;
60979;SDS011;46851;49.160;8.980;2023-06-26T00:03:47;6.65;;;5.45;;
60979;SDS011;46851;49.160;8.980;2023-06-26T00:06:13;7.40;;;4.78;;
60979;SDS011;46851;49.160;8.980;2023-06-26T00:08:39;6.18;;;4.45;;
60979;SDS011;46851;49.160;8.980;2023-06-26T00:11:05;8.18;;;5.00;;
60979;SDS011;46851;49.160;8.980;2023-06-26T00:13:32;6.88;;;5.10;;
60979;SDS011;46851;49.160;8.980;2023-06-26T00:15:58;9.40;;;5.43;;
60979;SDS011;46851;49.160;8.980;2023-06-26T00:18:28;8.10;;;5.25;;
60979;SDS011;46851;49.160;8.980;2023-06-26T00:20:54;9.25;;;5.55;;
60979;SDS011;46851;49.160;8.980;2023-06-26T00:23:20;7.20;;;4.43;;
60979;SDS011;46851;49.160;8.980;2023-06-26T00:25:46;7.30;;;5.63;;
60979;SDS011;46851;49.160;8.980;2023-06-26T00:28:12;7.65;;;5.30;;
60979;SDS011;46851;49.160;8.980;2023-06-26T00:30:38;9.00;;;5.32;;
60979;SDS011;46851;49.160;8.980;2023-06-26T00:33:04;8.90;;;5.10;;
60979;SDS011;46851;49.160;8.980;2023-06-26T00:35:30;6.90;;;4.60;;
60979;SDS011;46851;49.160;8.980;2023-06-26T00:37:56;7.07;;;4.65;;
60979;SDS011;46851;49.160;8.980;2023-06-26T00:40:22;7.85;;;5.03;;
60979;SDS011;46851;49.160;8.980;2023-06-26T00:42:48;5.70;;;4.70;;
60979;SDS011;46851;49.160;8.980;2023-06-26T00:45:14;9.13;;;5.70;;
60979;SDS011;46851;49.160;8.980;2023-06-26T00:47:40;6.18;;;4.57;;
60979;SDS011;46851;49.160;8.980;2023-06-26T00:50:06;8.38;;;5.15;;
60979;SDS011;46851;49.160;8.980;2023-06-26T00:52:32;7.55;;;5.10;;
60979;SDS011;46851;49.160;8.980;2023-06-26T00:54:58;6.43;;;4.85;;
60979;SDS011;46851;49.160;8.980;2023-06-26T00:57:24;6.78;;;4.72;;
60979;SDS011;46851;49.160;8.980;2023-06-26T00:59:50;7.43;;;4.85;;
60979;SDS011;46851;49.160;8.980;2023-06-26T01:02:16;8.38;;;5.05;;
60979;SDS011;46851;49.160;8.980;2023-06-26T01:04:45;8.07;;;5.00;;
60979;SDS011;46851;49.160;8.980;2023-06-26T01:07:12;8.73;;;6.22;;
60979;SDS011;46851;49.160;8.980;2023-06-26T01:09:39;7.15;;;4.93;;
60979;SDS011;46851;49.160;8.980;2023-06-26T01:12:05;7.72;;;5.22;;
60979;SDS011;46851;49.160;8.980;2023-06-26T01:14:31;7.40;;;5.05;;
60979;SDS011;46851;49.160;8.980;2023-06-26T01:16:58;7.78;;;5.18;;
60979;SDS011;46851;49.160;8.980;2023-06-26T01:19:26;7.80;;;5.28;;
60979;SDS011;46851;49.160;8.980;2023-06-26T01:21:59;8.77;;;5.32;;
60979;SDS011;46851;49.160;8.980;2023-06-26T01:24:27;8.75;;;5.05;;
60979;SDS011;46851;49.160;8.980;2023-06-26T01:26:57;7.60;;;5.32;;
60979;SDS011;46851;49.160;8.980;2023-06-26T01:29:24;7.82;;;5.13;;
60979;SDS011;46851;49.160;8.980;2023-06-26T01:31:51;8.70;;;5.40;;
60979;SDS011;46851;49.160;8.980;2023-06-26T01:34:17;8.63;;;5.45;;
60979;SDS011;46851;49.160;8.980;2023-06-26T01:36:44;9.23;;;5.25;;
60979;SDS011;46851;49.160;8.980;2023-06-26T01:39:10;6.63;;;5.05;;
60979;SDS011;46851;49.160;8.980;2023-06-26T01:41:36;7.68;;;5.15;;
60979;SDS011;46851;49.160;8.980;2023-06-26T01:47:14;8.38;;;5.28;;
60979;SDS011;46851;49.160;8.980;2023-06-26T01:49:21;9.10;;;5.70;;
60979;SDS011;46851;49.160;8.980;2023-06-26T01:51:51;10.05;;;6.03;;
60979;SDS011;46851;49.160;8.980;2023-06-26T01:54:20;8.55;;;5.55;;
60979;SDS011;46851;49.160;8.980;2023-06-26T01:56:49;7.35;;;5.45;;
60979;SDS011;46851;49.160;8.980;2023-06-26T01:59:15;9.98;;;5.18;;
60979;SDS011;46851;49.160;8.980;2023-06-26T02:01:42;7.47;;;5.43;;
60979;SDS011;46851;49.160;8.980;2023-06-26T02:04:08;10.63;;;6.60;;
60979;SDS011;46851;49.160;8.980;2023-06-26T02:06:34;8.60;;;6.10;;
60979;SDS011;46851;49.160;8.980;2023-06-26T02:09:00;8.63;;;5.70;;
60979;SDS011;46851;49.160;8.980;2023-06-26T02:11:26;9.32;;;5.95;;
60979;SDS011;46851;49.160;8.980;2023-06-26T02:13:52;13.43;;;6.22;;
60979;SDS011;46851;49.160;8.980;2023-06-26T02:16:18;10.45;;;5.70;;
60979;SDS011;46851;49.160;8.980;2023-06-26T02:18:44;8.45;;;5.63;;
60979;SDS011;46851;49.160;8.980;2023-06-26T02:21:10;7.70;;;5.25;;
60979;SDS011;46851;49.160;8.980;2023-06-26T02:23:36;8.80;;;6.00;;
60979;SDS011;46851;49.160;8.980;2023-06-26T02:26:02;7.97;;;5.72;;
60979;SDS011;46851;49.160;8.980;2023-06-26T02:28:28;8.05;;;5.80;;
60979;SDS011;46851;49.160;8.980;2023-06-26T02:30:56;9.75;;;5.85;;
60979;SDS011;46851;49.160;8.980;2023-06-26T02:33:22;9.68;;;6.07;;
60979;SDS011;46851;49.160;8.980;2023-06-26T02:35:48;9.20;;;5.55;;
60979;SDS011;46851;49.160;8.980;2023-06-26T02:38:15;12.50;;;6.20;;
60979;SDS011;46851;49.160;8.980;2023-06-26T02:40:41;8.80;;;5.82;;
60979;SDS011;46851;49.160;8.980;2023-06-26T02:43:07;7.25;;;5.43;;
60979;SDS011;46851;49.160;8.980;2023-06-26T02:45:33;7.88;;;6.20;;
60979;SDS011;46851;49.160;8.980;2023-06-26T02:47:59;8.77;;;6.28;;
60979;SDS011;46851;49.160;8.980;2023-06-26T02:50:25;9.50;;;6.90;;
60979;SDS011;46851;49.160;8.980;2023-06-26T02:52:51;7.90;;;5.90;;
60979;SDS011;46851;49.160;8.980;2023-06-26T02:55:18;12.90;;;6.03;;
60979;SDS011;46851;49.160;8.980;2023-06-26T02:57:44;10.80;;;6.32;;
60979;SDS011;46851;49.160;8.980;2023-06-26T03:00:11;8.80;;;6.07;;
60979;SDS011;46851;49.160;8.980;2023-06-26T03:02:37;10.70;;;6.60;;
60979;SDS011;46851;49.160;8.980;2023-06-26T03:05:03;11.48;;;6.47;;
60979;SDS011;46851;49.160;8.980;2023-06-26T03:07:29;9.23;;;5.70;;
60979;SDS011;46851;49.160;8.980;2023-06-26T03:09:55;10.18;;;6.97;;
60979;SDS011;46851;49.160;8.980;2023-06-26T03:12:21;12.75;;;7.15;;
60979;SDS011;46851;49.160;8.980;2023-06-26T03:14:48;13.77;;;7.03;;
60979;SDS011;46851;49.160;8.980;2023-06-26T03:17:13;10.70;;;6.65;;
60979;SDS011;46851;49.160;8.980;2023-06-26T03:19:40;11.88;;;7.05;;
60979;SDS011;46851;49.160;8.980;2023-06-26T03:22:05;16.27;;;6.53;;
60979;SDS011;46851;49.160;8.980;2023-06-26T03:24:31;11.73;;;6.93;;
60979;SDS011;46851;49.160;8.980;2023-06-26T03:26:58;9.05;;;6.65;;
60979;SDS011;46851;49.160;8.980;2023-06-26T03:29:25;15.52;;;7.50;;
60979;SDS011;46851;49.160;8.980;2023-06-26T03:31:51;11.48;;;6.75;;
60979;SDS011;46851;49.160;8.980;2023-06-26T03:34:17;12.85;;;7.85;;
60979;SDS011;46851;49.160;8.980;2023-06-26T03:36:43;13.23;;;7.28;;
60979;SDS011;46851;49.160;8.980;2023-06-26T03:39:09;11.13;;;6.65;;
60979;SDS011;46851;49.160;8.980;2023-06-26T03:41:34;18.40;;;7.22;;
60979;SDS011;46851;49.160;8.980;2023-06-26T03:44:00;10.88;;;7.10;;
60979;SDS011;46851;49.160;8.980;2023-06-26T03:46:28;11.07;;;6.75;;
60979;SDS011;46851;49.160;8.980;2023-06-26T03:48:54;13.25;;;7.53;;
60979;SDS011;46851;49.160;8.980;2023-06-26T03:51:20;11.82;;;8.02;;
60979;SDS011;46851;49.160;8.980;2023-06-26T03:53:46;14.48;;;8.10;;
60979;SDS011;46851;49.160;8.980;2023-06-26T03:56:12;14.65;;;7.95;;
60979;SDS011;46851;49.160;8.980;2023-06-26T03:58:39;10.43;;;7.03;;
60979;SDS011;46851;49.160;8.980;2023-06-26T04:01:05;17.27;;;6.90;;
60979;SDS011;46851;49.160;8.980;2023-06-26T04:03:31;11.68;;;7.03;;
60979;SDS011;46851;49.160;8.980;2023-06-26T04:05:57;10.20;;;6.70;;
60979;SDS011;46851;49.160;8.980;2023-06-26T04:08:23;11.85;;;7.45;;
60979;SDS011;46851;49.160;8.980;2023-06-26T04:10:51;13.00;;;6.88;;
60979;SDS011;46851;49.160;8.980;2023-06-26T04:13:18;11.80;;;6.47;;
60979;SDS011;46851;49.160;8.980;2023-06-26T04:15:44;12.68;;;7.15;;
60979;SDS011;46851;49.160;8.980;2023-06-26T04:18:10;11.32;;;7.10;;
60979;SDS011;46851;49.160;8.980;2023-06-26T04:20:41;8.73;;;6.00;;
60979;SDS011;46851;49.160;8.980;2023-06-26T04:23:10;10.32;;;6.22;;
60979;SDS011;46851;49.160;8.980;2023-06-26T04:25:36;8.07;;;6.05;;
60979;SDS011;46851;49.160;8.980;2023-06-26T04:28:02;10.15;;;6.10;;
60979;SDS011;46851;49.160;8.980;2023-06-26T04:30:28;12.30;;;6.53;;
60979;SDS011;46851;49.160;8.980;2023-06-26T04:32:55;13.60;;;6.38;;
60979;SDS011;46851;49.160;8.980;2023-06-26T04:35:23;11.15;;;6.95;;
60979;SDS011;46851;49.160;8.980;2023-06-26T04:37:49;10.93;;;7.45;;
60979;SDS011;46851;49.160;8.980;2023-06-26T04:40:15;11.90;;;6.47;;
60979;SDS011;46851;49.160;8.980;2023-06-26T04:42:41;12.57;;;6.70;;
60979;SDS011;46851;49.160;8.980;2023-06-26T04:45:07;11.13;;;6.88;;
60979;SDS011;46851;49.160;8.980;2023-06-26T04:47:33;13.38;;;7.35;;
60979;SDS011;46851;49.160;8.980;2023-06-26T04:49:59;10.68;;;7.00;;
60979;SDS011;46851;49.160;8.980;2023-06-26T04:52:25;9.85;;;6.90;;
60979;SDS011;46851;49.160;8.980;2023-06-26T04:54:51;9.90;;;6.60;;
60979;SDS011;46851;49.160;8.980;2023-06-26T04:57:17;11.05;;;7.05;;
60979;SDS011;46851;49.160;8.980;2023-06-26T04:59:43;9.90;;;6.88;;
60979;SDS011;46851;49.160;8.980;2023-06-26T05:02:09;16.02;;;7.95;;
60979;SDS011;46851;49.160;8.980;2023-06-26T05:04:36;10.73;;;7.63;;
60979;SDS011;46851;49.160;8.980;2023-06-26T05:07:02;12.25;;;7.20;;
60979;SDS011;46851;49.160;8.980;2023-06-26T05:09:28;14.98;;;7.22;;
60979;SDS011;46851;49.160;8.980;2023-06-26T05:11:54;9.73;;;6.68;;
60979;SDS011;46851;49.160;8.980;2023-06-26T05:14:20;12.05;;;6.57;;
60979;SDS011;46851;49.160;8.980;2023-06-26T05:16:46;11.35;;;6.95;;
60979;SDS011;46851;49.160;8.980;2023-06-26T05:19:12;12.30;;;7.35;;
60979;SDS011;46851;49.160;8.980;2023-06-26T05:21:38;12.02;;;7.07;;
60979;SDS011;46851;49.160;8.980;2023-06-26T05:24:04;9.57;;;6.55;;
60979;SDS011;46851;49.160;8.980;2023-06-26T05:26:31;11.35;;;6.45;;
60979;SDS011;46851;49.160;8.980;2023-06-26T05:28:57;11.27;;;7.13;;
60979;SDS011;46851;49.160;8.980;2023-06-26T05:31:23;10.55;;;6.95;;
60979;SDS011;46851;49.160;8.980;2023-06-26T05:33:49;11.15;;;6.90;;
60979;SDS011;46851;49.160;8.980;2023-06-26T05:36:16;9.98;;;7.03;;
60979;SDS011;46851;49.160;8.980;2023-06-26T05:38:42;11.45;;;7.00;;
60979;SDS011;46851;49.160;8.980;2023-06-26T05:41:08;8.48;;;6.40;;
60979;SDS011;46851;49.160;8.980;2023-06-26T05:43:34;11.93;;;6.70;;
60979;SDS011;46851;49.160;8.980;2023-06-26T05:46:00;8.57;;;6.57;;
60979;SDS011;46851;49.160;8.980;2023-06-26T05:48:26;10.98;;;7.05;;
60979;SDS011;46851;49.160;8.980;2023-06-26T05:50:52;10.27;;;6.93;;
60979;SDS011;46851;49.160;8.980;2023-06-26T05:53:19;9.93;;;6.70;;
60979;SDS011;46851;49.160;8.980;2023-06-26T05:55:45;9.80;;;6.90;;
60979;SDS011;46851;49.160;8.980;2023-06-26T05:58:11;10.00;;;7.47;;
60979;SDS011;46851;49.160;8.980;2023-06-26T06:00:38;9.90;;;6.32;;
60979;SDS011;46851;49.160;8.980;2023-06-26T06:03:04;9.80;;;6.18;;
60979;SDS011;46851;49.160;8.980;2023-06-26T06:05:30;11.57;;;7.15;;
60979;SDS011;46851;49.160;8.980;2023-06-26T06:07:56;10.73;;;7.05;;
60979;SDS011;46851;49.160;8.980;2023-06-26T06:10:22;10.30;;;7.25;;
60979;SDS011;46851;49.160;8.980;2023-06-26T06:12:48;11.95;;;6.80;;
60979;SDS011;46851;49.160;8.980;2023-06-26T06:15:19;15.52;;;6.57;;
60979;SDS011;46851;49.160;8.980;2023-06-26T06:17:45;8.75;;;6.63;;
60979;SDS011;46851;49.160;8.980;2023-06-26T06:20:11;8.70;;;6.50;;
60979;SDS011;46851;49.160;8.980;2023-06-26T06:22:37;8.23;;;6.50;;
60979;SDS011;46851;49.160;8.980;2023-06-26T06:25:03;8.93;;;5.88;;
60979;SDS011;46851;49.160;8.980;2023-06-26T06:27:29;10.18;;;6.75;;
60979;SDS011;46851;49.160;8.980;2023-06-26T06:29:56;8.23;;;6.05;;
60979;SDS011;46851;49.160;8.980;2023-06-26T06:32:22;8.50;;;5.93;;
60979;SDS011;46851;49.160;8.980;2023-06-26T06:34:48;10.27;;;7.18;;
60979;SDS011;46851;49.160;8.980;2023-06-26T06:37:14;9.45;;;6.97;;
60979;SDS011;46851;49.160;8.980;2023-06-26T06:39:40;11.95;;;6.82;;
60979;SDS011;46851;49.160;8.980;2023-06-26T06:42:06;9.07;;;6.30;;
60979;SDS011;46851;49.160;8.980;2023-06-26T06:44:33;12.43;;;6.57;;
60979;SDS011;46851;49.160;8.980;2023-06-26T06:46:59;12.55;;;6.13;;
60979;SDS011;46851;49.160;8.980;2023-06-26T06:49:25;11.68;;;7.15;;
60979;SDS011;46851;49.160;8.980;2023-06-26T06:51:51;11.55;;;6.53;;
60979;SDS011;46851;49.160;8.980;2023-06-26T06:54:17;9.52;;;6.40;;
60979;SDS011;46851;49.160;8.980;2023-06-26T06:56:44;11.10;;;6.47;;
60979;SDS011;46851;49.160;8.980;2023-06-26T06:59:10;13.23;;;6.82;;
60979;SDS011;46851;49.160;8.980;2023-06-26T07:01:36;7.53;;;6.35;;
60979;SDS011;46851;49.160;8.980;2023-06-26T07:04:02;9.48;;;6.00;;
60979;SDS011;46851;49.160;8.980;2023-06-26T07:06:29;10.25;;;6.10;;
60979;SDS011;46851;49.160;8.980;2023-06-26T07:08:55;7.10;;;6.00;;
60979;SDS011;46851;49.160;8.980;2023-06-26T07:11:21;14.00;;;6.25;;
60979;SDS011;46851;49.160;8.980;2023-06-26T07:13:47;11.20;;;6.50;;
60979;SDS011;46851;49.160;8.980;2023-06-26T07:16:13;13.05;;;6.72;;
60979;SDS011;46851;49.160;8.980;2023-06-26T07:18:40;11.55;;;6.13;;
60979;SDS011;46851;49.160;8.980;2023-06-26T07:21:06;16.40;;;6.28;;
60979;SDS011;46851;49.160;8.980;2023-06-26T07:29:07;10.35;;;6.35;;
60979;SDS011;46851;49.160;8.980;2023-06-26T07:31:34;11.23;;;6.13;;
60979;SDS011;46851;49.160;8.980;2023-06-26T07:34:00;15.52;;;5.30;;
60979;SDS011;46851;49.160;8.980;2023-06-26T07:36:26;9.38;;;5.97;;
60979;SDS011;46851;49.160;8.980;2023-06-26T07:38:52;8.65;;;6.15;;
60979;SDS011;46851;49.160;8.980;2023-06-26T07:41:18;7.93;;;5.43;;
60979;SDS011;46851;49.160;8.980;2023-06-26T07:43:44;8.38;;;6.20;;
60979;SDS011;46851;49.160;8.980;2023-06-26T07:46:10;7.18;;;5.68;;
60979;SDS011;46851;49.160;8.980;2023-06-26T07:48:36;8.77;;;5.57;;
60979;SDS011;46851;49.160;8.980;2023-06-26T07:51:02;7.32;;;5.88;;
60979;SDS011;46851;49.160;8.980;2023-06-26T07:53:28;7.70;;;5.22;;
60979;SDS011;46851;49.160;8.980;2023-06-26T07:55:54;7.60;;;5.63;;
60979;SDS011;46851;49.160;8.980;2023-06-26T07:58:20;7.80;;;5.45;;
60979;SDS011;46851;49.160;8.980;2023-06-26T08:00:46;8.32;;;5.53;;
60979;SDS011;46851;49.160;8.980;2023-06-26T08:03:12;9.32;;;5.18;;
60979;SDS011;46851;49.160;8.980;2023-06-26T08:05:37;7.93;;;5.07;;
60979;SDS011;46851;49.160;8.980;2023-06-26T08:08:03;11.70;;;5.00;;
60979;SDS011;46851;49.160;8.980;2023-06-26T08:10:29;6.30;;;4.35;;
60979;SDS011;46851;49.160;8.980;2023-06-26T08:12:56;6.63;;;4.78;;
60979;SDS011;46851;49.160;8.980;2023-06-26T08:15:22;17.95;;;4.97;;
60979;SDS011;46851;49.160;8.980;2023-06-26T08:17:48;13.65;;;5.38;;
60979;SDS011;46851;49.160;8.980;2023-06-26T08:20:15;6.50;;;4.55;;
60979;SDS011;46851;49.160;8.980;2023-06-26T08:22:41;11.95;;;4.72;;
60979;SDS011;46851;49.160;8.980;2023-06-26T08:25:08;12.82;;;5.18;;
60979;SDS011;46851;49.160;8.980;2023-06-26T08:27:34;5.18;;;4.20;;
60979;SDS011;46851;49.160;8.980;2023-06-26T08:30:00;10.95;;;5.05;;
60979;SDS011;46851;49.160;8.980;2023-06-26T08:32:26;11.90;;;4.60;;
60979;SDS011;46851;49.160;8.980;2023-06-26T08:34:52;11.02;;;4.82;;
60979;SDS011;46851;49.160;8.980;2023-06-26T08:37:18;17.17;;;5.13;;
60979;SDS011;46851;49.160;8.980;2023-06-26T08:39:44;5.32;;;4.30;;
60979;SDS011;46851;49.160;8.980;2023-06-26T08:42:10;6.60;;;4.78;;
60979;SDS011;46851;49.160;8.980;2023-06-26T08:44:37;6.13;;;4.22;;
60979;SDS011;46851;49.160;8.980;2023-06-26T08:47:04;6.85;;;4.18;;
60979;SDS011;46851;49.160;8.980;2023-06-26T08:49:46;16.48;;;4.93;;
60979;SDS011;46851;49.160;8.980;2023-06-26T08:52:28;8.85;;;4.70;;
60979;SDS011;46851;49.160;8.980;2023-06-26T08:54:57;8.55;;;4.53;;
60979;SDS011;46851;49.160;8.980;2023-06-26T08:57:24;6.78;;;4.97;;
60979;SDS011;46851;49.160;8.980;2023-06-26T08:59:51;6.68;;;4.25;;
60979;SDS011;46851;49.160;8.980;2023-06-26T09:02:18;4.88;;;4.22;;
60979;SDS011;46851;49.160;8.980;2023-06-26T09:04:46;6.25;;;4.25;;
60979;SDS011;46851;49.160;8.980;2023-06-26T09:07:13;10.95;;;4.80;;
60979;SDS011;46851;49.160;8.980;2023-06-26T09:09:39;13.90;;;5.15;;
60979;SDS011;46851;49.160;8.980;2023-06-26T09:12:05;11.00;;;4.68;;
60979;SDS011;46851;49.160;8.980;2023-06-26T09:14:32;9.63;;;4.40;;
60979;SDS011;46851;49.160;8.980;2023-06-26T09:16:58;10.05;;;4.60;;
60979;SDS011;46851;49.160;8.980;2023-06-26T09:19:24;11.07;;;4.57;;
60979;SDS011;46851;49.160;8.980;2023-06-26T09:21:50;8.07;;;4.97;;
60979;SDS011;46851;49.160;8.980;2023-06-26T09:24:16;16.13;;;5.03;;
60979;SDS011;46851;49.160;8.980;2023-06-26T09:26:42;19.75;;;5.30;;
60979;SDS011;46851;49.160;8.980;2023-06-26T09:29:09;8.32;;;4.90;;
60979;SDS011;46851;49.160;8.980;2023-06-26T09:31:39;6.97;;;4.20;;
60979;SDS011;46851;49.160;8.980;2023-06-26T09:34:05;7.97;;;4.57;;
60979;SDS011;46851;49.160;8.980;2023-06-26T09:36:32;10.88;;;5.10;;
60979;SDS011;46851;49.160;8.980;2023-06-26T09:39:01;10.13;;;5.10;;
60979;SDS011;46851;49.160;8.980;2023-06-26T09:41:27;7.57;;;5.20;;
60979;SDS011;46851;49.160;8.980;2023-06-26T09:43:53;6.80;;;4.72;;
60979;SDS011;46851;49.160;8.980;2023-06-26T09:46:26;7.20;;;5.03;;
60979;SDS011;46851;49.160;8.980;2023-06-26T09:49:00;8.43;;;5.13;;
60979;SDS011;46851;49.160;8.980;2023-06-26T09:51:27;8.98;;;5.03;;
60979;SDS011;46851;49.160;8.980;2023-06-26T09:53:55;7.22;;;5.30;;
60979;SDS011;46851;49.160;8.980;2023-06-26T09:56:21;7.60;;;5.18;;
60979;SDS011;46851;49.160;8.980;2023-06-26T09:58:47;10.10;;;5.05;;
60979;SDS011;46851;49.160;8.980;2023-06-26T10:01:14;12.75;;;5.45;;
60979;SDS011;46851;49.160;8.980;2023-06-26T10:03:40;8.85;;;5.30;;
60979;SDS011;46851;49.160;8.980;2023-06-26T10:06:06;15.73;;;5.75;;
60979;SDS011;46851;49.160;8.980;2023-06-26T10:08:32;7.60;;;5.18;;
60979;SDS011;46851;49.160;8.980;2023-06-26T10:11:00;11.00;;;5.90;;
60979;SDS011;46851;49.160;8.980;2023-06-26T10:13:31;9.43;;;5.38;;
60979;SDS011;46851;49.160;8.980;2023-06-26T10:15:57;11.93;;;6.07;;
60979;SDS011;46851;49.160;8.980;2023-06-26T10:18:24;7.45;;;5.38;;
60979;SDS011;46851;49.160;8.980;2023-06-26T10:20:51;10.00;;;5.47;;
60979;SDS011;46851;49.160;8.980;2023-06-26T10:23:19;11.33;;;5.50;;
60979;SDS011;46851;49.160;8.980;2023-06-26T10:25:46;6.45;;;5.28;;
60979;SDS011;46851;49.160;8.980;2023-06-26T10:28:14;7.75;;;5.55;;
60979;SDS011;46851;49.160;8.980;2023-06-26T10:30:40;8.35;;;5.60;;
60979;SDS011;46851;49.160;8.980;2023-06-26T10:33:07;9.85;;;5.90;;
60979;SDS011;46851;49.160;8.980;2023-06-26T10:35:34;10.07;;;5.38;;
60979;SDS011;46851;49.160;8.980;2023-06-26T10:38:06;7.40;;;5.70;;
60979;SDS011;46851;49.160;8.980;2023-06-26T10:40:50;8.88;;;5.80;;
60979;SDS011;46851;49.160;8.980;2023-06-26T10:43:16;6.50;;;5.28;;
60979;SDS011;46851;49.160;8.980;2023-06-26T10:45:47;9.40;;;5.47;;
60979;SDS011;46851;49.160;8.980;2023-06-26T10:48:18;8.25;;;5.40;;
60979;SDS011;46851;49.160;8.980;2023-06-26T10:50:46;6.63;;;5.05;;
60979;SDS011;46851;49.160;8.980;2023-06-26T10:55:56;8.07;;;5.05;;
60979;SDS011;46851;49.160;8.980;2023-06-26T11:01:22;11.30;;;7.82;;
60979;SDS011;46851;49.160;8.980;2023-06-26T11:06:17;14.25;;;5.30;;
60979;SDS011;46851;49.160;8.980;2023-06-26T11:08:43;14.73;;;5.30;;
60979;SDS011;46851;49.160;8.980;2023-06-26T11:11:10;9.57;;;5.43;;
60979;SDS011;46851;49.160;8.980;2023-06-26T11:13:36;8.75;;;5.13;;
60979;SDS011;46851;49.160;8.980;2023-06-26T11:16:03;7.78;;;5.03;;
60979;SDS011;46851;49.160;8.980;2023-06-26T11:18:31;9.00;;;5.05;;
60979;SDS011;46851;49.160;8.980;2023-06-26T11:21:10;10.95;;;5.30;;
60979;SDS011;46851;49.160;8.980;2023-06-26T11:23:38;18.17;;;5.80;;
60979;SDS011;46851;49.160;8.980;2023-06-26T11:28:45;23.65;;;5.72;;
60979;SDS011;46851;49.160;8.980;2023-06-26T11:31:23;33.05;;;6.00;;
60979;SDS011;46851;49.160;8.980;2023-06-26T11:33:49;29.50;;;6.50;;
60979;SDS011;46851;49.160;8.980;2023-06-26T11:36:15;8.27;;;5.20;;
60979;SDS011;46851;49.160;8.980;2023-06-26T11:38:41;7.20;;;5.80;;
60979;SDS011;46851;49.160;8.980;2023-06-26T11:41:07;10.75;;;5.53;;
60979;SDS011;46851;49.160;8.980;2023-06-26T11:43:33;7.20;;;5.10;;
60979;SDS011;46851;49.160;8.980;2023-06-26T11:46:00;18.40;;;5.45;;
60979;SDS011;46851;49.160;8.980;2023-06-26T11:48:26;19.38;;;5.40;;
60979;SDS011;46851;49.160;8.980;2023-06-26T11:50:52;8.10;;;5.55;;
60979;SDS011;46851;49.160;8.980;2023-06-26T11:53:18;9.05;;;5.35;;
60979;SDS011;46851;49.160;8.980;2023-06-26T11:55:44;10.80;;;5.28;;
60979;SDS011;46851;49.160;8.980;2023-06-26T11:58:10;29.10;;;6.22;;
60979;SDS011;46851;49.160;8.980;2023-06-26T12:00:40;6.47;;;5.22;;
60979;SDS011;46851;49.160;8.980;2023-06-26T12:03:07;10.45;;;5.18;;
60979;SDS011;46851;49.160;8.980;2023-06-26T12:05:33;17.85;;;6.15;;
60979;SDS011;46851;49.160;8.980;2023-06-26T12:07:59;13.73;;;5.88;;
60979;SDS011;46851;49.160;8.980;2023-06-26T12:10:26;9.05;;;5.75;;
60979;SDS011;46851;49.160;8.980;2023-06-26T12:12:53;17.75;;;6.13;;
60979;SDS011;46851;49.160;8.980;2023-06-26T12:15:23;15.48;;;5.68;;
60979;SDS011;46851;49.160;8.980;2023-06-26T12:17:49;11.35;;;5.30;;
60979;SDS011;46851;49.160;8.980;2023-06-26T12:20:18;8.23;;;5.15;;
60979;SDS011;46851;49.160;8.980;2023-06-26T12:22:48;12.10;;;5.38;;
60979;SDS011;46851;49.160;8.980;2023-06-26T12:27:40;17.80;;;6.30;;
60979;SDS011;46851;49.160;8.980;2023-06-26T12:30:06;12.48;;;6.15;;
60979;SDS011;46851;49.160;8.980;2023-06-26T12:32:32;22.17;;;7.00;;
60979;SDS011;46851;49.160;8.980;2023-06-26T12:35:00;24.55;;;5.90;;
60979;SDS011;46851;49.160;8.980;2023-06-26T12:37:26;11.05;;;5.93;;
60979;SDS011;46851;49.160;8.980;2023-06-26T12:39:53;13.43;;;5.53;;
60979;SDS011;46851;49.160;8.980;2023-06-26T12:42:21;8.75;;;5.68;;
60979;SDS011;46851;49.160;8.980;2023-06-26T12:44:48;14.10;;;5.90;;
60979;SDS011;46851;49.160;8.980;2023-06-26T12:47:15;16.85;;;5.63;;
60979;SDS011;46851;49.160;8.980;2023-06-26T12:49:42;19.85;;;9.25;;
60979;SDS011;46851;49.160;8.980;2023-06-26T12:52:09;15.13;;;5.68;;
60979;SDS011;46851;49.160;8.980;2023-06-26T12:54:36;11.63;;;5.38;;
60979;SDS011;46851;49.160;8.980;2023-06-26T12:57:02;12.32;;;5.50;;
60979;SDS011;46851;49.160;8.980;2023-06-26T12:59:29;6.55;;;4.93;;
60979;SDS011;46851;49.160;8.980;2023-06-26T13:01:56;11.82;;;4.95;;
60979;SDS011;46851;49.160;8.980;2023-06-26T13:04:22;9.73;;;4.90;;
60979;SDS011;46851;49.160;8.980;2023-06-26T13:06:48;11.90;;;4.63;;
60979;SDS011;46851;49.160;8.980;2023-06-26T13:09:15;8.10;;;5.00;;
60979;SDS011;46851;49.160;8.980;2023-06-26T13:11:41;5.10;;;4.45;;
60979;SDS011;46851;49.160;8.980;2023-06-26T13:14:07;8.15;;;4.38;;
60979;SDS011;46851;49.160;8.980;2023-06-26T13:16:33;9.95;;;4.85;;
60979;SDS011;46851;49.160;8.980;2023-06-26T13:18:59;10.05;;;4.43;;
60979;SDS011;46851;49.160;8.980;2023-06-26T13:21:27;22.27;;;5.50;;
60979;SDS011;46851;49.160;8.980;2023-06-26T13:23:53;19.02;;;4.43;;
60979;SDS011;46851;49.160;8.980;2023-06-26T13:26:20;10.95;;;3.90;;
60979;SDS011;46851;49.160;8.980;2023-06-26T13:28:50;6.28;;;3.80;;
60979;SDS011;46851;49.160;8.980;2023-06-26T13:31:16;7.78;;;4.45;;
60979;SDS011;46851;49.160;8.980;2023-06-26T13:33:42;19.10;;;5.63;;
60979;SDS011;46851;49.160;8.980;2023-06-26T13:36:09;12.20;;;4.35;;
60979;SDS011;46851;49.160;8.980;2023-06-26T13:38:35;8.68;;;3.47;;
60979;SDS011;46851;49.160;8.980;2023-06-26T13:41:01;7.20;;;3.78;;
60979;SDS011;46851;49.160;8.980;2023-06-26T13:43:28;5.65;;;3.75;;
60979;SDS011;46851;49.160;8.980;2023-06-26T13:45:54;11.52;;;3.35;;
60979;SDS011;46851;49.160;8.980;2023-06-26T13:48:21;7.75;;;3.40;;
60979;SDS011;46851;49.160;8.980;2023-06-26T13:50:49;6.85;;;3.08;;
60979;SDS011;46851;49.160;8.980;2023-06-26T13:53:15;8.85;;;3.65;;
60979;SDS011;46851;49.160;8.980;2023-06-26T13:55:41;4.28;;;2.97;;
60979;SDS011;46851;49.160;8.980;2023-06-26T13:58:07;9.98;;;3.78;;
60979;SDS011;46851;49.160;8.980;2023-06-26T14:00:34;6.78;;;3.60;;
60979;SDS011;46851;49.160;8.980;2023-06-26T14:03:01;4.57;;;3.10;;
60979;SDS011;46851;49.160;8.980;2023-06-26T14:05:28;6.50;;;3.22;;
60979;SDS011;46851;49.160;8.980;2023-06-26T14:07:54;5.65;;;3.70;;
60979;SDS011;46851;49.160;8.980;2023-06-26T14:10:20;11.57;;;3.90;;
60979;SDS011;46851;49.160;8.980;2023-06-26T14:12:46;21.45;;;4.55;;
60979;SDS011;46851;49.160;8.980;2023-06-26T14:15:12;8.82;;;3.33;;
60979;SDS011;46851;49.160;8.980;2023-06-26T14:17:39;12.27;;;3.55;;
60979;SDS011;46851;49.160;8.980;2023-06-26T14:20:05;16.27;;;3.92;;
60979;SDS011;46851;49.160;8.980;2023-06-26T14:22:35;11.27;;;3.88;;
60979;SDS011;46851;49.160;8.980;2023-06-26T14:25:01;13.90;;;3.85;;
60979;SDS011;46851;49.160;8.980;2023-06-26T14:27:27;13.70;;;4.00;;
60979;SDS011;46851;49.160;8.980;2023-06-26T14:29:53;12.50;;;3.88;;
60979;SDS011;46851;49.160;8.980;2023-06-26T14:32:19;19.67;;;4.63;;
60979;SDS011;46851;49.160;8.980;2023-06-26T14:34:45;11.93;;;4.20;;
60979;SDS011;46851;49.160;8.980;2023-06-26T14:37:11;19.40;;;4.68;;
60979;SDS011;46851;49.160;8.980;2023-06-26T14:39:37;30.55;;;6.28;;
60979;SDS011;46851;49.160;8.980;2023-06-26T14:42:03;16.42;;;6.50;;
60979;SDS011;46851;49.160;8.980;2023-06-26T14:44:30;11.93;;;5.70;;
60979;SDS011;46851;49.160;8.980;2023-06-26T14:46:56;15.25;;;6.32;;
60979;SDS011;46851;49.160;8.980;2023-06-26T14:49:22;17.20;;;6.40;;
60979;SDS011;46851;49.160;8.980;2023-06-26T14:51:48;15.73;;;6.28;;
60979;SDS011;46851;49.160;8.980;2023-06-26T14:54:14;10.93;;;6.32;;
60979;SDS011;46851;49.160;8.980;2023-06-26T14:56:40;21.13;;;6.63;;
60979;SDS011;46851;49.160;8.980;2023-06-26T14:59:08;19.07;;;7.13;;